Airport View

Enter AWOS ICAO identifier for current METAR.

ex. KFNL

KELN 261053Z AUTO VRB03KT 10SM CLR 08/04 A2987 RMK AO2 SLP108 T00780044

26 Jun 2019 11:48

Frequency: 118.375

Phone: 509-925-2040

Other Area AWOS: KEAT - KYKM - KSMP - KEPH

TAF KEAT 260548Z 2606/2706 26006KT P6SM SCT100 FM261100 31007KT P6SM VCSH SCT070 BKN100 FM262100 29005KT P6SM VCTS SCT060CB OVC100 TEMPO 2621/2701 P6SM -TSRA SCT060CB OVC090